Time;durP1;ratioP1;P1;durP2;ratioP2;P2;SDS_P1;SDS_P2;PMS_P1;PMS_P2;Temp;Humidity;BMP_temperature;BMP_pressure;BME280_temperature;BME280_humidity;BME280_pressure;Samples;Min_cycle;Max_cycle;Signal;HPM_P1;HPM_P2
2023/11/06 00:00:33;;;;;;;1999.90;999.90;;;11.20;99.90;;;;;;5053856;28;20202;-68
2023/11/06 00:02:59;;;;;;;1999.90;999.90;;;11.20;99.90;;;;;;5053486;28;20175;-69
2023/11/06 00:05:25;;;;;;;1999.90;999.90;;;11.20;99.90;;;;;;5053658;28;20422;-69
2023/11/06 00:07:51;;;;;;;1999.90;999.90;;;11.10;99.90;;;;;;5053594;28;20408;-69
2023/11/06 00:10:17;;;;;;;1999.90;999.90;;;11.20;99.90;;;;;;5035784;28;20501;-69
2023/11/06 00:12:43;;;;;;;1999.90;999.90;;;11.10;99.90;;;;;;5053451;28;20167;-70
2023/11/06 00:15:13;;;;;;;1999.90;999.90;;;11.10;99.90;;;;;;5035566;28;20438;-68
2023/11/06 00:17:39;;;;;;;1999.90;999.90;;;11.00;99.90;;;;;;5053504;28;20410;-69
2023/11/06 00:20:05;;;;;;;1999.90;999.90;;;11.00;99.90;;;;;;5052420;28;21013;-68
2023/11/06 00:22:30;;;;;;;1999.90;999.90;;;11.00;99.90;;;;;;5053276;28;20665;-69
2023/11/06 00:24:57;;;;;;;1999.90;999.90;;;10.90;99.90;;;;;;5053404;28;20430;-69
2023/11/06 00:27:25;;;;;;;1999.90;999.90;;;10.90;99.90;;;;;;5053328;28;20224;-69
2023/11/06 00:29:50;;;;;;;1999.90;999.90;;;11.00;99.90;;;;;;5053227;28;20810;-69
2023/11/06 00:32:16;;;;;;;1999.90;999.90;;;11.10;99.90;;;;;;5035212;28;20452;-69
2023/11/06 00:34:42;;;;;;;1999.90;999.90;;;11.00;99.90;;;;;;5053209;28;20429;-69
2023/11/06 00:37:08;;;;;;;1999.90;999.90;;;10.90;99.90;;;;;;5053228;28;20417;-70
2023/11/06 00:39:35;;;;;;;1999.90;999.90;;;10.90;99.90;;;;;;5053138;28;20599;-69
2023/11/06 00:42:03;;;;;;;1999.90;999.90;;;10.90;99.90;;;;;;5052865;28;20440;-69
2023/11/06 00:44:28;;;;;;;1999.90;999.90;;;10.90;99.90;;;;;;5052904;28;20410;-70
2023/11/06 00:46:54;;;;;;;1999.90;999.90;;;10.90;99.90;;;;;;5053057;28;20744;-70
2023/11/06 00:49:20;;;;;;;1999.90;999.90;;;10.90;99.90;;;;;;5052938;28;20163;-68
2023/11/06 00:51:46;;;;;;;1999.90;999.90;;;10.90;99.90;;;;;;5052581;28;20249;-69
2023/11/06 00:54:14;;;;;;;1999.90;999.90;;;10.90;99.90;;;;;;5052860;28;20496;-68
2023/11/06 00:56:40;;;;;;;1999.90;999.90;;;10.90;99.90;;;;;;5053167;28;20932;-69
2023/11/06 00:59:05;;;;;;;1999.90;999.90;;;10.90;99.90;;;;;;5052579;28;20517;-69
2023/11/06 01:01:31;;;;;;;1999.90;999.90;;;10.90;99.90;;;;;;5052656;28;20408;-69
2023/11/06 01:03:57;;;;;;;1999.90;999.90;;;10.90;99.90;;;;;;5052479;28;20171;-68
2023/11/06 01:06:24;;;;;;;1999.90;999.90;;;10.90;99.90;;;;;;5052630;28;20264;-69
2023/11/06 01:08:50;;;;;;;1999.90;999.90;;;11.00;99.90;;;;;;5052528;28;20406;-68
2023/11/06 01:11:16;;;;;;;1999.90;999.90;;;11.00;99.90;;;;;;5034652;28;20416;-69
2023/11/06 01:13:41;;;;;;;1999.90;999.90;;;11.10;99.90;;;;;;5034420;28;20174;-69
2023/11/06 01:16:07;;;;;;;1999.90;999.90;;;11.10;99.90;;;;;;5052342;28;20434;-69
2023/11/06 01:18:33;;;;;;;1999.90;999.90;;;11.10;99.90;;;;;;5052398;28;20167;-69
2023/11/06 01:20:59;;;;;;;1999.90;999.90;;;11.10;99.90;;;;;;5052334;28;20460;-69
2023/11/06 01:23:24;;;;;;;1999.90;999.90;;;11.10;99.90;;;;;;5052165;28;20175;-69
2023/11/06 01:25:50;;;;;;;1999.90;999.90;;;11.10;99.90;;;;;;5052218;28;20191;-69
2023/11/06 01:28:16;;;;;;;1999.90;999.90;;;11.10;99.90;;;;;;5052188;28;20163;-69
2023/11/06 01:30:42;;;;;;;1999.90;999.90;;;11.10;99.90;;;;;;5052040;28;20174;-69
2023/11/06 01:33:07;;;;;;;1999.90;999.90;;;11.00;99.90;;;;;;5052544;28;20410;-69
2023/11/06 01:35:33;;;;;;;1999.90;999.90;;;10.80;99.90;;;;;;5052446;28;20557;-69
2023/11/06 01:38:01;;;;;;;1999.90;999.90;;;10.70;99.90;;;;;;5052127;28;20178;-69
2023/11/06 01:40:31;;;;;;;1999.90;999.90;;;10.50;99.90;;;;;;5052030;28;20200;-69
2023/11/06 01:43:08;;;;;;;1999.90;999.90;;;10.50;99.90;;;;;;5051786;28;20412;-69
2023/11/06 01:45:34;;;;;;;1999.90;999.90;;;10.40;99.90;;;;;;5051934;28;20518;-69
2023/11/06 01:48:02;;;;;;;1999.90;999.90;;;10.30;99.90;;;;;;5051860;28;20411;-69
2023/11/06 01:50:33;;;;;;;1999.90;999.90;;;10.30;99.90;;;;;;5051994;28;20413;-69
2023/11/06 01:53:03;;;;;;;1999.90;999.90;;;10.30;99.90;;;;;;5051752;28;20429;-69
2023/11/06 01:55:30;;;;;;;1999.90;999.90;;;10.30;99.90;;;;;;5051539;28;20449;-69
2023/11/06 01:57:56;;;;;;;1999.90;999.90;;;10.30;99.90;;;;;;5051664;28;20405;-69
2023/11/06 02:00:23;;;;;;;1999.90;999.90;;;10.50;99.90;;;;;;5052462;28;20447;-68
2023/11/06 02:02:49;;;;;;;1999.90;999.90;;;10.40;99.90;;;;;;5052693;28;20161;-68
2023/11/06 02:05:19;;;;;;;1999.90;999.90;;;10.50;99.90;;;;;;5033874;28;20425;-69
2023/11/06 02:07:48;;;;;;;1999.90;999.90;;;10.40;99.90;;;;;;5051693;28;20403;-69
2023/11/06 02:10:17;;;;;;;1999.90;999.90;;;10.40;99.90;;;;;;5051693;28;20401;-69
2023/11/06 02:12:47;;;;;;;1999.90;999.90;;;10.40;99.90;;;;;;5051690;28;20778;-69
2023/11/06 02:15:16;;;;;;;1999.90;999.90;;;10.40;99.90;;;;;;5051593;28;20429;-68
2023/11/06 02:17:42;;;;;;;1999.90;999.90;;;10.30;99.90;;;;;;5051538;28;20415;-68
2023/11/06 02:20:12;;;;;;;1999.90;999.90;;;10.30;99.90;;;;;;5051489;28;20445;-68
2023/11/06 02:22:44;;;;;;;1999.90;999.90;;;10.30;99.90;;;;;;5051764;28;20398;-68
2023/11/06 02:25:10;;;;;;;1999.90;999.90;;;10.40;99.90;;;;;;5051458;28;20408;-68
2023/11/06 02:27:37;;;;;;;1999.90;999.90;;;10.30;99.90;;;;;;5051531;28;20405;-69
2023/11/06 02:30:03;;;;;;;1999.90;999.90;;;10.30;99.90;;;;;;5051466;28;20444;-68
2023/11/06 02:32:29;;;;;;;1999.90;999.90;;;10.30;99.90;;;;;;5051300;28;20966;-68
2023/11/06 02:34:55;;;;;;;1999.90;999.90;;;10.30;99.90;;;;;;5051443;28;20429;-68
2023/11/06 02:37:21;;;;;;;1999.90;999.90;;;10.30;99.90;;;;;;5051390;28;20416;-68
2023/11/06 02:39:49;;;;;;;1999.90;999.90;;;10.30;99.90;;;;;;5051529;28;20201;-68
2023/11/06 02:42:14;;;;;;;1999.90;999.90;;;10.40;99.90;;;;;;5051708;28;20408;-68
2023/11/06 02:44:40;;;;;;;1999.90;999.90;;;10.40;99.90;;;;;;5055216;28;20416;-69
2023/11/06 02:47:06;;;;;;;1999.90;999.90;;;10.40;99.90;;;;;;5055303;28;20802;-69
2023/11/06 02:49:32;;;;;;;1999.90;999.90;;;10.40;99.90;;;;;;5055184;28;20417;-69
2023/11/06 02:51:58;;;;;;;1999.90;999.90;;;10.40;99.90;;;;;;5036971;28;20421;-69
2023/11/06 02:54:24;;;;;;;1999.90;999.90;;;10.60;99.90;;;;;;5054857;28;20254;-68
2023/11/06 02:56:50;;;;;;;1999.90;999.90;;;10.40;99.90;;;;;;5053777;28;20549;-69
2023/11/06 02:59:16;;;;;;;1999.90;999.90;;;10.40;99.90;;;;;;5053932;28;20444;-68
2023/11/06 03:01:42;;;;;;;1999.90;999.90;;;10.30;99.90;;;;;;5053747;28;20470;-68
2023/11/06 03:04:12;;;;;;;1999.90;999.90;;;10.20;99.90;;;;;;5053521;28;20192;-68
2023/11/06 03:06:38;;;;;;;1999.90;999.90;;;10.20;99.90;;;;;;5053569;28;20978;-68
2023/11/06 03:09:06;;;;;;;1999.90;999.90;;;10.30;99.90;;;;;;5053860;28;20407;-69
2023/11/06 03:11:32;;;;;;;1999.90;999.90;;;10.20;99.90;;;;;;5053548;28;20467;-69
2023/11/06 03:13:57;;;;;;;1999.90;999.90;;;10.30;99.90;;;;;;5053222;28;20407;-69
2023/11/06 03:16:23;;;;;;;1999.90;999.90;;;10.20;99.90;;;;;;5053461;28;20421;-69
2023/11/06 03:18:48;;;;;;;1999.90;999.90;;;10.20;99.90;;;;;;5035513;28;20178;-68
2023/11/06 03:21:14;;;;;;;1999.90;999.90;;;10.10;99.90;;;;;;5053439;28;20230;-68
2023/11/06 03:23:40;;;;;;;1999.90;999.90;;;10.20;99.90;;;;;;5053211;28;20171;-69
2023/11/06 03:26:06;;;;;;;1999.90;999.90;;;10.20;99.90;;;;;;5053178;28;20420;-69
2023/11/06 03:28:32;;;;;;;1999.90;999.90;;;10.20;99.90;;;;;;5053291;28;20176;-68
2023/11/06 03:30:58;;;;;;;1999.90;999.90;;;10.20;99.90;;;;;;5053287;28;20440;-68
2023/11/06 03:33:24;;;;;;;1999.90;999.90;;;10.30;99.90;;;;;;5053439;28;20492;-68
2023/11/06 03:35:50;;;;;;;1999.90;999.90;;;10.20;99.90;;;;;;5053693;28;20523;-69
2023/11/06 03:38:16;;;;;;;1999.90;999.90;;;10.30;99.90;;;;;;5053237;28;20459;-69
2023/11/06 03:40:42;;;;;;;1999.90;999.90;;;10.20;99.90;;;;;;5053007;28;20208;-68
2023/11/06 03:43:07;;;;;;;1999.90;999.90;;;10.20;99.90;;;;;;5052668;28;20175;-69
2023/11/06 03:45:33;;;;;;;1999.90;999.90;;;10.30;99.90;;;;;;5053071;28;20801;-69
2023/11/06 03:47:59;;;;;;;1999.90;999.90;;;10.20;99.90;;;;;;5053080;28;20173;-69
2023/11/06 03:50:25;;;;;;;1999.90;999.90;;;10.20;99.90;;;;;;5053012;28;20167;-69
2023/11/06 03:52:50;;;;;;;1999.90;999.90;;;10.30;99.90;;;;;;5035086;28;20428;-68
2023/11/06 03:55:16;;;;;;;1999.90;999.90;;;10.30;99.90;;;;;;5012894;28;1150850;-69
2023/11/06 03:57:42;;;;;;;1999.90;999.90;;;10.30;99.90;;;;;;5053972;28;20175;-69
2023/11/06 04:00:10;;;;;;;1999.90;999.90;;;10.30;99.90;;;;;;5053736;28;20681;-69
2023/11/06 04:02:36;;;;;;;1999.90;999.90;;;10.30;99.90;;;;;;5019534;28;20171;-69
2023/11/06 04:05:02;;;;;;;1999.90;999.90;;;10.30;99.90;;;;;;5053682;28;20429;-69
2023/11/06 04:07:28;;;;;;;1999.90;999.90;;;10.30;99.90;;;;;;5035903;28;20419;-68
2023/11/06 04:09:55;;;;;;;1999.90;999.90;;;10.30;99.90;;;;;;5053687;28;20404;-69
2023/11/06 04:12:22;;;;;;;1999.90;999.90;;;10.20;99.90;;;;;;5053481;28;20165;-69
2023/11/06 04:14:48;;;;;;;1999.90;999.90;;;10.20;99.90;;;;;;5053646;28;20456;-68
2023/11/06 04:17:14;;;;;;;1999.90;999.90;;;10.30;99.90;;;;;;5053530;28;20413;-69
2023/11/06 04:19:41;;;;;;;1999.90;999.90;;;10.30;99.90;;;;;;5053413;28;20459;-68
2023/11/06 04:22:07;;;;;;;1999.90;999.90;;;10.20;99.90;;;;;;5053268;28;20174;-69
2023/11/06 04:24:33;;;;;;;1999.90;999.90;;;10.20;99.90;;;;;;5053336;28;20783;-69
2023/11/06 04:26:59;;;;;;;1999.90;999.90;;;10.30;99.90;;;;;;5053304;28;20405;-69
2023/11/06 04:29:24;;;;;;;1999.90;999.90;;;10.30;99.90;;;;;;5053268;28;20413;-69
2023/11/06 04:31:50;;;;;;;1999.90;999.90;;;10.40;99.90;;;;;;5053161;28;20170;-69
2023/11/06 04:34:16;;;;;;;1999.90;999.90;;;;;;;;;;5053362;28;20562;-68
2023/11/06 04:36:42;;;;;;;1999.90;999.90;;;10.30;99.90;;;;;;5053286;28;20795;-68
2023/11/06 04:39:09;;;;;;;1999.90;999.90;;;10.20;99.90;;;;;;5052947;28;20456;-68
2023/11/06 04:41:37;;;;;;;1999.90;999.90;;;10.20;99.90;;;;;;5053016;28;20180;-68
2023/11/06 04:44:03;;;;;;;1999.90;999.90;;;10.20;99.90;;;;;;5052795;28;20409;-68
2023/11/06 04:46:29;;;;;;;1999.90;999.90;;;10.20;99.90;;;;;;5052769;28;20432;-68
2023/11/06 04:48:54;;;;;;;1999.90;999.90;;;10.20;99.90;;;;;;5052852;28;20408;-68
2023/11/06 04:51:20;;;;;;;1999.90;999.90;;;10.20;99.90;;;;;;5052838;28;20215;-69
2023/11/06 04:53:45;;;;;;;1999.90;999.90;;;10.40;99.90;;;;;;5052580;28;20693;-69
2023/11/06 04:56:11;;;;;;;1999.90;999.90;;;10.30;99.90;;;;;;5052647;28;20278;-68
2023/11/06 04:58:37;;;;;;;1999.90;999.90;;;10.40;99.90;;;;;;5052737;28;20175;-69
2023/11/06 05:01:06;;;;;;;1999.90;999.90;;;10.40;99.90;;;;;;5052598;28;20194;-69
2023/11/06 05:03:33;;;;;;;1999.90;999.90;;;10.40;99.90;;;;;;5052425;28;20191;-69
2023/11/06 05:05:59;;;;;;;1999.90;999.90;;;10.40;99.90;;;;;;5052120;28;20954;-69
2023/11/06 05:08:28;;;;;;;1999.90;999.90;;;10.40;99.90;;;;;;5052529;28;20405;-69
2023/11/06 05:10:54;;;;;;;1999.90;999.90;;;10.50;99.90;;;;;;5034711;28;20177;-69
2023/11/06 05:13:20;;;;;;;1999.90;999.90;;;10.50;99.90;;;;;;5052272;28;20795;-69
2023/11/06 05:15:46;;;;;;;1999.90;999.90;;;10.50;99.90;;;;;;5052389;28;20429;-69
2023/11/06 05:18:11;;;;;;;1999.90;999.90;;;10.60;99.90;;;;;;5051950;28;20664;-69
2023/11/06 05:20:39;;;;;;;1999.90;999.90;;;10.60;99.90;;;;;;5051539;28;20225;-69
2023/11/06 05:23:05;;;;;;;1999.90;999.90;;;10.60;99.90;;;;;;5047466;28;20171;-69
2023/11/06 05:25:30;;;;;;;1999.90;999.90;;;10.60;99.90;;;;;;5052223;28;20437;-69
2023/11/06 05:27:57;;;;;;;1999.90;999.90;;;10.60;99.90;;;;;;5052256;28;20670;-69
2023/11/06 05:30:22;;;;;;;1999.90;999.90;;;10.60;99.90;;;;;;5052198;28;20169;-69
2023/11/06 05:32:48;;;;;;;1999.90;999.90;;;10.70;99.90;;;;;;5051951;28;20413;-69
2023/11/06 05:35:14;;;;;;;1999.90;999.90;;;10.70;99.90;;;;;;5052114;28;20731;-69
2023/11/06 05:37:40;;;;;;;1999.90;999.90;;;10.60;99.90;;;;;;5052020;28;20249;-69
2023/11/06 05:40:09;;;;;;;1999.90;999.90;;;10.70;99.90;;;;;;5034038;28;20460;-68
2023/11/06 05:42:34;;;;;;;1999.90;999.90;;;10.60;99.90;;;;;;5051679;28;20213;-69
2023/11/06 05:45:00;;;;;;;1999.90;999.90;;;10.60;99.90;;;;;;5052145;28;20425;-69
2023/11/06 05:47:25;;;;;;;1999.90;999.90;;;10.60;99.90;;;;;;5051992;28;20167;-69
2023/11/06 05:49:51;;;;;;;1999.90;999.90;;;10.50;99.90;;;;;;5051907;28;20172;-69
2023/11/06 05:52:16;;;;;;;1999.90;999.90;;;10.50;99.90;;;;;;5051609;28;20184;-69
2023/11/06 05:54:42;;;;;;;1999.90;999.90;;;10.50;99.90;;;;;;5051916;28;20200;-69
2023/11/06 05:57:08;;;;;;;1999.90;999.90;;;10.40;99.90;;;;;;5051813;28;20232;-69
2023/11/06 05:59:33;;;;;;;1999.90;999.90;;;10.40;99.90;;;;;;5051665;28;20247;-69
2023/11/06 06:01:59;;;;;;;1999.90;999.90;;;10.40;99.90;;;;;;5051557;28;20200;-69
2023/11/06 06:04:24;;;;;;;1999.90;999.90;;;10.50;99.90;;;;;;5051652;28;20170;-69
2023/11/06 06:06:54;;;;;;;1999.90;999.90;;;10.40;99.90;;;;;;5051750;28;20175;-69
2023/11/06 06:09:21;;;;;;;1999.90;999.90;;;10.40;99.90;;;;;;5051720;28;20858;-69
2023/11/06 06:11:47;;;;;;;1999.90;999.90;;;10.30;99.90;;;;;;5051568;28;20413;-69
2023/11/06 06:14:12;;;;;;;1999.90;999.90;;;10.30;99.90;;;;;;5051758;28;20984;-69
2023/11/06 06:16:38;;;;;;;1999.90;999.90;;;10.50;99.90;;;;;;5051631;28;20194;-69
2023/11/06 06:19:06;;;;;;;1999.90;999.90;;;10.40;99.90;;;;;;5055398;28;20549;-69
2023/11/06 06:21:32;;;;;;;1999.90;999.90;;;10.40;99.90;;;;;;5055781;28;20174;-69
2023/11/06 06:23:57;;;;;;;1999.90;999.90;;;10.30;99.90;;;;;;5055455;28;20785;-69
2023/11/06 06:26:24;;;;;;;1999.90;999.90;;;10.30;99.90;;;;;;5037669;28;20441;-68
2023/11/06 06:28:50;;;;;;;1999.90;999.90;;;10.30;99.90;;;;;;5037809;28;20206;-69
2023/11/06 06:31:16;;;;;;;1999.90;999.90;;;10.30;99.90;;;;;;5055708;28;20454;-69
2023/11/06 06:33:41;;;;;;;1999.90;999.90;;;10.30;99.90;;;;;;5037419;28;20179;-69
2023/11/06 06:36:11;;;;;;;1999.90;999.90;;;10.30;99.90;;;;;;5055452;28;20527;-69
2023/11/06 06:38:37;;;;;;;1999.90;999.90;;;10.20;99.90;;;;;;5054501;28;20193;-69
2023/11/06 06:41:03;;;;;;;1999.90;999.90;;;10.20;99.90;;;;;;5055210;28;20920;-69
2023/11/06 06:43:29;;;;;;;1999.90;999.90;;;10.20;99.90;;;;;;5055098;28;20644;-69
2023/11/06 06:45:55;;;;;;;1999.90;999.90;;;10.10;99.90;;;;;;5055256;28;20797;-69
2023/11/06 06:48:21;;;;;;;1999.90;999.90;;;10.20;99.90;;;;;;5037456;28;20432;-69
2023/11/06 06:50:46;;;;;;;1999.90;999.90;;;10.20;99.90;;;;;;5055574;28;20256;-69
2023/11/06 06:53:12;;;;;;;1999.90;999.90;;;10.20;99.90;;;;;;5055044;28;20182;-69
2023/11/06 06:55:38;;;;;;;1999.90;999.90;;;10.20;99.90;;;;;;5055072;28;20214;-69
2023/11/06 06:58:04;;;;;;;1999.90;999.90;;;10.20;99.90;;;;;;5055142;28;20173;-69
2023/11/06 07:00:32;;;;;;;1999.90;999.90;;;10.20;99.90;;;;;;5055120;28;20203;-69
2023/11/06 07:02:59;;;;;;;1999.90;999.90;;;10.20;99.90;;;;;;5054886;28;20404;-69
2023/11/06 07:05:26;;;;;;;1999.90;999.90;;;10.30;99.90;;;;;;5054873;28;20507;-68
2023/11/06 07:07:52;;;;;;;1999.90;999.90;;;10.30;99.90;;;;;;5037101;28;20409;-69
2023/11/06 07:10:17;;;;;;;1999.90;999.90;;;10.30;99.90;;;;;;5054910;28;20471;-68
2023/11/06 07:12:43;;;;;;;1999.90;999.90;;;10.30;99.90;;;;;;5054340;28;20402;-69
2023/11/06 07:15:10;;;;;;;1999.90;999.90;;;10.30;99.90;;;;;;5039009;28;20198;-69
2023/11/06 07:17:36;;;;;;;1999.90;999.90;;;10.30;99.90;;;;;;5054325;28;20197;-69
2023/11/06 07:20:03;;;;;;;1999.90;999.90;;;10.40;99.90;;;;;;5053686;28;20458;-69
2023/11/06 07:22:29;;;;;;;1999.90;999.90;;;10.40;99.90;;;;;;5053950;28;20422;-69
2023/11/06 07:24:54;;;;;;;1999.90;999.90;;;10.40;99.90;;;;;;5054100;28;20499;-69
2023/11/06 07:27:21;;;;;;;1999.90;999.90;;;10.50;99.90;;;;;;5054035;28;20870;-69
2023/11/06 07:29:47;;;;;;;1999.90;999.90;;;10.40;99.90;;;;;;5054146;28;20179;-69
2023/11/06 07:32:13;;;;;;;1999.90;999.90;;;10.50;99.90;;;;;;5053420;28;20439;-68
2023/11/06 07:34:39;;;;;;;1999.90;999.90;;;10.50;99.90;;;;;;5054186;28;20486;-69
2023/11/06 07:37:05;;;;;;;1999.90;999.90;;;10.50;99.90;;;;;;5054528;28;20421;-70
2023/11/06 07:39:31;;;;;;;1999.90;999.90;;;;;;;;;;5053943;28;20214;-69
2023/11/06 07:41:57;;;;;;;1999.90;999.90;;;10.50;99.90;;;;;;5054146;28;20236;-69
2023/11/06 07:44:23;;;;;;;1999.90;999.90;;;10.90;99.90;;;;;;5054376;28;20417;-69
2023/11/06 07:46:49;;;;;;;1999.90;999.90;;;10.70;99.90;;;;;;5054455;28;20198;-69
2023/11/06 07:49:15;;;;;;;1999.90;999.90;;;10.70;99.90;;;;;;5054089;28;20924;-69
2023/11/06 07:51:40;;;;;;;1999.90;999.90;;;10.70;99.90;;;;;;5054264;28;20421;-69
2023/11/06 07:54:07;;;;;;;1999.90;999.90;;;10.80;99.90;;;;;;5054124;28;20183;-68
2023/11/06 07:56:32;;;;;;;1999.90;999.90;;;10.80;99.90;;;;;;5054169;28;20209;-69
2023/11/06 07:59:02;;;;;;;1999.90;999.90;;;10.80;99.90;;;;;;5053958;28;20409;-70
2023/11/06 08:01:28;;;;;;;1999.90;999.90;;;10.90;99.90;;;;;;5054212;28;20248;-69
2023/11/06 08:03:53;;;;;;;1999.90;999.90;;;10.90;99.90;;;;;;5053960;28;20407;-69
2023/11/06 08:06:19;;;;;;;1999.90;999.90;;;10.90;99.90;;;;;;5053959;28;20187;-69
2023/11/06 08:08:45;;;;;;;1999.90;999.90;;;11.00;99.90;;;;;;5053637;28;20541;-69
2023/11/06 08:11:11;;;;;;;1999.90;999.90;;;10.90;99.90;;;;;;5053878;28;20174;-68
2023/11/06 08:13:37;;;;;;;1999.90;999.90;;;11.00;99.90;;;;;;5053794;28;20769;-69
2023/11/06 08:16:03;;;;;;;1999.90;999.90;;;11.00;99.90;;;;;;5053790;28;20580;-69
2023/11/06 08:18:29;;;;;;;1999.90;999.90;;;11.10;99.90;;;;;;5053706;28;20691;-69
2023/11/06 08:20:55;;;;;;;1999.90;999.90;;;11.10;99.90;;;;;;5053999;28;20526;-69
2023/11/06 08:23:21;;;;;;;1999.90;999.90;;;11.10;99.90;;;;;;5053638;28;20410;-68
2023/11/06 08:25:47;;;;;;;1999.90;999.90;;;11.20;99.90;;;;;;5053499;28;20579;-69
2023/11/06 08:28:12;;;;;;;1999.90;999.90;;;11.20;99.90;;;;;;5053492;28;20166;-68
2023/11/06 08:30:38;;;;;;;1999.90;999.90;;;11.30;99.90;;;;;;5053625;28;20549;-69
2023/11/06 08:33:04;;;;;;;1999.90;999.90;;;;;;;;;;5053177;28;20197;-69
2023/11/06 08:35:30;;;;;;;1999.90;999.90;;;11.40;99.90;;;;;;5053329;28;20191;-69
2023/11/06 08:37:55;;;;;;;1999.90;999.90;;;11.40;99.90;;;;;;5053342;28;20420;-69
2023/11/06 08:40:22;;;;;;;1999.90;999.90;;;11.50;99.90;;;;;;5052527;28;20289;-69
2023/11/06 08:42:48;;;;;;;1999.90;999.90;;;11.50;99.90;;;;;;5052065;28;20172;-67
2023/11/06 08:45:14;;;;;;;1999.90;999.90;;;11.60;99.90;;;;;;5045070;28;21165;-69
2023/11/06 08:47:39;;;;;;;1999.90;999.90;;;11.60;99.90;;;;;;5047530;28;20216;-70
2023/11/06 08:50:07;;;;;;;1999.90;999.90;;;11.70;99.90;;;;;;5047657;28;20184;-70
2023/11/06 08:52:33;;;;;;;1999.90;999.90;;;11.70;99.90;;;;;;5046802;28;20183;-70
2023/11/06 08:54:58;;;;;;;1999.90;999.90;;;11.70;99.90;;;;;;5047796;28;20950;-70
2023/11/06 08:57:24;;;;;;;1999.90;999.90;;;12.20;99.90;;;;;;5046261;28;20430;-70
2023/11/06 08:59:50;;;;;;;1999.90;999.90;;;11.80;99.90;;;;;;5047456;28;20191;-69
2023/11/06 09:02:20;;;;;;;1999.90;999.90;;;11.90;99.90;;;;;;5044264;28;20431;-68
2023/11/06 09:04:47;;;;;;;1999.90;999.90;;;12.10;99.90;;;;;;5046921;28;20206;-68
2023/11/06 09:07:14;;;;;;;1999.90;999.90;;;12.20;99.90;;;;;;5045115;28;20417;-68
2023/11/06 09:09:40;;;;;;;1999.90;999.90;;;12.30;99.90;;;;;;5046992;28;20517;-68
2023/11/06 09:12:06;;;;;;;1999.90;999.90;;;12.30;99.90;;;;;;5047836;28;20434;-68
2023/11/06 09:14:34;;;;;;;1999.90;999.90;;;12.30;99.90;;;;;;5046728;28;20418;-68
2023/11/06 09:17:03;;;;;;;1999.90;999.90;;;12.40;99.90;;;;;;5047588;28;20445;-68
2023/11/06 09:19:29;;;;;;;1999.90;999.90;;;12.60;99.90;;;;;;5047982;28;20464;-69
2023/11/06 09:21:54;;;;;;;1999.90;999.90;;;12.70;99.90;;;;;;5047517;28;20432;-70
2023/11/06 09:24:20;;;;;;;1999.90;999.90;;;12.80;99.90;;;;;;5046455;28;20632;-69
2023/11/06 09:26:46;;;;;;;1999.90;999.90;;;12.90;99.90;;;;;;5046401;28;20176;-69
2023/11/06 09:29:12;;;;;;;1999.90;999.90;;;13.10;99.90;;;;;;5042133;28;20199;-69
2023/11/06 09:31:37;;;;;;;1999.90;999.90;;;13.10;99.90;;;;;;5046975;28;20447;-68
2023/11/06 09:34:05;;;;;;;1999.90;999.90;;;13.10;99.90;;;;;;5043290;28;20177;-69
2023/11/06 09:36:30;;;;;;;1999.90;999.90;;;13.10;99.90;;;;;;5028183;28;20189;-69
2023/11/06 09:38:56;;;;;;;1999.90;999.90;;;13.20;99.90;;;;;;5046901;28;20438;-69
2023/11/06 09:41:23;;;;;;;1999.90;999.90;;;13.30;99.90;;;;;;5034614;28;20209;-69
2023/11/06 09:43:48;;;;;;;1999.90;999.90;;;13.50;99.90;;;;;;5043510;28;21272;-69
2023/11/06 09:46:15;;;;;;;1999.90;999.90;;;13.60;99.90;;;;;;5032458;28;20448;-71
2023/11/06 09:48:40;;;;;;;1999.90;999.90;;;13.70;99.90;;;;;;5046147;28;20456;-69
2023/11/06 09:51:12;;;;;;;1999.90;999.90;;;13.80;99.90;;;;;;5046748;28;20425;-70
2023/11/06 09:53:40;;;;;;;1999.90;999.90;;;13.80;99.90;;;;;;5043810;28;20710;-69
2023/11/06 09:56:08;;;;;;;1999.90;999.90;;;13.80;99.90;;;;;;5046981;28;20952;-69
2023/11/06 09:58:35;;;;;;;1999.90;999.90;;;15.00;99.90;;;;;;5047868;28;20430;-69
2023/11/06 10:01:00;;;;;;;1999.90;999.90;;;13.70;97.00;;;;;;5046514;28;20970;-68
2023/11/06 10:03:26;;;;;;;1999.90;999.90;;;13.70;97.90;;;;;;5033243;28;20411;-69
2023/11/06 10:05:51;;;;;;;1999.90;999.90;;;13.70;99.20;;;;;;5037455;28;20190;-70
2023/11/06 10:08:37;;;;;;;1999.90;999.90;;;13.60;97.60;;;;;;5043154;28;20906;-69
2023/11/06 10:11:04;;;;;;;1999.90;999.90;;;13.60;96.10;;;;;;5038610;28;20184;-68
2023/11/06 10:13:30;;;;;;;1999.90;999.90;;;13.50;95.70;;;;;;5042570;28;20797;-69
2023/11/06 10:16:15;;;;;;;1999.90;999.90;;;13.50;96.30;;;;;;5043140;28;20434;-68
2023/11/06 10:18:41;;;;;;;1999.90;999.90;;;13.30;96.50;;;;;;5042107;28;20425;-70
2023/11/06 10:21:06;;;;;;;1999.90;999.90;;;13.30;97.90;;;;;;5040857;28;20948;-69
2023/11/06 10:23:34;;;;;;;1999.90;999.90;;;13.40;97.60;;;;;;5044752;28;20676;-69
2023/11/06 10:26:31;;;;;;;1999.90;999.90;;;13.40;97.90;;;;;;5024532;28;20279;-69
2023/11/06 10:29:17;;;;;;;1999.90;999.90;;;13.40;97.50;;;;;;5030000;28;20476;-68
2023/11/06 10:31:49;;;;;;;1999.90;999.90;;;13.40;97.60;;;;;;5034921;28;20427;-68
2023/11/06 10:34:27;;;;;;;1999.90;999.90;;;13.30;98.70;;;;;;5040219;28;20424;-71
2023/11/06 10:37:10;;;;;;;1999.90;999.90;;;13.30;99.00;;;;;;5038748;28;20414;-69
2023/11/06 10:39:40;;;;;;;1999.90;999.90;;;13.20;99.70;;;;;;5036626;28;20508;-69
2023/11/06 10:42:07;;;;;;;1999.90;999.90;;;13.30;99.50;;;;;;5038776;28;20503;-69
2023/11/06 10:44:34;;;;;;;1999.90;999.90;;;13.30;99.90;;;;;;5045923;28;20852;-69
2023/11/06 10:47:07;;;;;;;1999.90;999.90;;;13.30;99.80;;;;;;5040174;28;20531;-69
2023/11/06 10:49:34;;;;;;;1999.90;999.90;;;13.20;99.90;;;;;;5041687;28;20423;-70
2023/11/06 10:52:04;;;;;;;1999.90;999.90;;;13.30;99.90;;;;;;5044975;28;20502;-69
2023/11/06 10:54:30;;;;;;;1999.90;999.90;;;13.40;99.90;;;;;;5043724;28;20933;-68
2023/11/06 10:56:58;;;;;;;1999.90;999.90;;;13.40;98.00;;;;;;5045558;28;20847;-69
2023/11/06 10:59:29;;;;;;;1999.90;999.90;;;13.60;97.30;;;;;;5046399;28;20453;-69
2023/11/06 11:01:58;;;;;;;1999.90;999.90;;;13.70;97.70;;;;;;5025969;28;20422;-69
2023/11/06 11:04:26;;;;;;;1999.90;999.90;;;13.80;97.80;;;;;;5030874;28;20411;-69
2023/11/06 11:06:53;;;;;;;1999.90;999.90;;;13.90;98.20;;;;;;5044717;28;20422;-69
2023/11/06 11:09:19;;;;;;;1999.90;999.90;;;14.10;97.20;;;;;;5022335;28;20468;-69
2023/11/06 11:11:45;;;;;;;1999.90;999.90;;;14.30;96.30;;;;;;5048061;28;20400;-69
2023/11/06 11:14:12;;;;;;;1999.90;999.90;;;14.40;95.40;;;;;;5047342;28;20428;-69
2023/11/06 11:16:42;;;;;;;1999.90;999.90;;;14.40;95.00;;;;;;5048637;28;20430;-69
2023/11/06 11:19:20;;;;;;;1999.90;999.90;;;14.40;94.80;;;;;;5046580;28;20412;-68
2023/11/06 11:22:06;;;;;;;1999.90;999.90;;;14.30;94.50;;;;;;5030032;28;20510;-69
2023/11/06 11:24:41;;;;;;;1999.90;999.90;;;14.00;99.90;;;;;;5046216;28;20425;-69
2023/11/06 11:27:17;;;;;;;1999.90;999.90;;;14.00;93.80;;;;;;5047157;28;20505;-69
2023/11/06 11:30:10;;;;;;;1999.90;999.90;;;14.00;94.10;;;;;;5029825;28;20421;-69
2023/11/06 11:32:37;;;;;;;1999.90;999.90;;;14.20;93.70;;;;;;5042223;28;20434;-68
2023/11/06 11:35:13;;;;;;;1999.90;999.90;;;14.20;92.90;;;;;;5047610;28;20449;-69
2023/11/06 11:37:39;;;;;;;1999.90;999.90;;;14.20;92.70;;;;;;5047819;28;20976;-69
2023/11/06 11:40:06;;;;;;;1999.90;999.90;;;14.10;93.00;;;;;;5046677;28;20459;-69
2023/11/06 11:42:31;;;;;;;1999.90;999.90;;;14.00;94.40;;;;;;5049065;28;20440;-69
2023/11/06 11:44:59;;;;;;;1999.90;999.90;;;14.00;94.40;;;;;;5045600;28;20474;-69
2023/11/06 11:47:45;;;;;;;1999.90;999.90;;;14.10;93.50;;;;;;5048748;28;20172;-69
2023/11/06 11:50:36;;;;;;;1999.90;999.90;;;14.70;92.00;;;;;;5042733;28;20466;-69
2023/11/06 11:53:01;;;;;;;1999.90;999.90;;;15.40;91.70;;;;;;5048570;28;20868;-70
2023/11/06 11:55:34;;;;;;;1999.90;999.90;;;16.20;83.30;;;;;;5091110;23;20580;-69
2023/11/06 11:58:01;;;;;;;1999.90;999.90;;;16.20;80.00;;;;;;5070145;28;20401;-69
2023/11/06 12:00:27;;;;;;;1999.90;999.90;;;15.80;76.80;;;;;;5069765;28;20924;-68